Pagrindinis puslapis
METAR-TAF:

METAR-TAF

Oro uostai :

Terezina, Piauí, Brazilija

platuma: 05-03S, ilguma: 042-49W, Aukštis: 69 m

Dabartinis oras

Ataskaita buvo paskelbta 29 minutes, ne 01:00 UTC
Vėjas 4 kt iš Šiaurės Vakarų
Temperatūra 27°C
Drėgmė 84%
Slėgis 1012 hPa
Matomumas 10 km arba daugiau
nėra debesų žemiau 1500 m ir nėra kamuolinių lietaus debesų

METAR: SBTE 170100Z 32004KT CAVOK 27/24 Q1012

Laikas: 22:29 (01:29 UTC)

Prognozė

Ataskaita buvo paskelbta 4 valandos ir 29 minutes, ne 21:00 UTC
Prognozė galioja nuo 17 metu 00 UTC su 17 metu 12 UTC
Vėjas 3 kt iš Šiaurės/Šiaurės Vakarų
Matomumas 10 km arba daugiau
Išsisklaidę debesys ne aukštis 2000 ft
Tapsmas
nuo 17 metu 05 UTC su 17 metu 07 UTC
Vėjas 5 kt iš Šiaurės/Šiaurės Rytų
Išsisklaidę debesys ne aukštis 700 ft

TAF: SBTE 162100Z 1700/1712 34003KT 9999 SCT020 TN24/1709Z TX28/1712Z BECMG 1705/1707 02005KT SCT007 RMK PGU

Orai ataskaitas ir orų prognozės (METAR, TAF).

turimą stotys yra geltonos ir raudonos taškus žemėlapyje.

Perkelti pele per norėdami pamatyti stoties vardą.

Tada spustelėkite, norėdami matyti oro stebėjimo ir prognozės.

Norėdami pakeisti žemėlapį: spustelėkite ant žalios mygtukų su juodo kryžiaus žemyn,; žalią mygtuką su brūkšneliu, jei norite nutolinti; arba žalių rodyklių gretimoms žemėlapius.


METAR-TAF: